Terminal Aerodrome Forecast
Issued by NWS

Home | Current Version | Previous Version | Text Only | Print | Product List | Glossary On
Versions: 1 2 3 4 5 6 7 8 9 10 11 12 13 14
000
FTUS43 KAPX 270546 RRA
TAFPLN
TAF
KPLN 270546Z 2706/2806 34009KT P6SM BKN025 OVC040
     FM271600 34010G18KT P6SM SCT040 BKN100
     FM280100 33005KT P6SM SCT100=

USA.gov is the U.S. government's official web portal to all federal, state and local government web resources and services.